Time;durP1;ratioP1;P1;durP2;ratioP2;P2;SDS_P1;SDS_P2;PMS_P1;PMS_P2;Temp;Humidity;BMP_temperature;BMP_pressure;BME280_temperature;BME280_humidity;BME280_pressure;Samples;Min_cycle;Max_cycle;Signal;HPM_P1;HPM_P2
2021/10/01 00:00:51;;;;;;;2.93;1.10;;;;;;;12.86;100.00;101422.91;4981373;28;20228;-77
2021/10/01 00:03:21;;;;;;;3.03;0.90;;;;;;;13.00;100.00;101421.28;5005496;28;20177;-76
2021/10/01 00:05:49;;;;;;;3.17;0.90;;;;;;;12.92;100.00;101412.81;5010420;28;20221;-76
2021/10/01 00:08:17;;;;;;;2.60;1.20;;;;;;;12.99;100.00;101416.94;5001950;28;20184;-77
2021/10/01 00:10:46;;;;;;;2.50;1.00;;;;;;;12.93;100.00;101422.63;5030042;28;20247;-75
2021/10/01 00:13:14;;;;;;;2.37;0.93;;;;;;;12.90;100.00;101412.28;5007561;28;20177;-77
2021/10/01 00:15:39;;;;;;;2.90;0.90;;;;;;;12.94;100.00;101407.91;5010170;28;20221;-76
2021/10/01 00:18:11;;;;;;;1.87;1.00;;;;;;;13.01;100.00;101416.66;5016536;28;20210;-76
2021/10/01 00:20:39;;;;;;;1.87;0.90;;;;;;;12.74;100.00;101413.28;4982159;28;20236;-77
2021/10/01 00:23:09;;;;;;;2.73;1.00;;;;;;;12.82;100.00;101405.44;5010389;28;20191;-77
2021/10/01 00:25:39;;;;;;;2.80;0.90;;;;;;;12.88;100.00;101404.34;4978410;28;20290;-76
2021/10/01 00:28:05;;;;;;;3.57;0.90;;;;;;;12.85;100.00;101399.44;5013729;28;20181;-75
2021/10/01 00:30:30;;;;;;;3.37;0.97;;;;;;;13.01;100.00;101409.28;4996991;28;20239;-76
2021/10/01 00:33:00;;;;;;;3.73;1.10;;;;;;;13.08;100.00;101398.94;5011964;28;20184;-78
2021/10/01 00:35:26;;;;;;;3.60;1.00;;;;;;;12.96;100.00;101390.19;4994194;28;20225;-77
2021/10/01 00:37:54;;;;;;;4.23;0.97;;;;;;;12.95;100.00;101394.00;4994110;28;20196;-77
2021/10/01 00:40:20;;;;;;;3.20;0.83;;;;;;;12.93;100.00;101385.28;5013181;28;20620;-75
2021/10/01 00:42:48;;;;;;;1.63;0.80;;;;;;;13.02;100.00;101382.81;4998203;28;20259;-75
2021/10/01 00:45:16;;;;;;;2.87;1.00;;;;;;;12.93;100.00;101385.28;4994449;28;20185;-77
2021/10/01 00:47:42;;;;;;;6.10;1.13;;;;;;;12.87;100.00;101380.88;4977960;28;20576;-75
2021/10/01 00:50:11;;;;;;;2.03;0.70;;;;;;;13.01;100.00;101379.28;5026882;28;20208;-74
2021/10/01 00:52:39;;;;;;;1.90;0.87;;;;;;;12.90;100.00;101374.09;4998023;28;20188;-74
2021/10/01 00:55:06;;;;;;;2.40;0.90;;;;;;;12.74;100.00;101370.47;4997481;28;20215;-76
2021/10/01 00:57:34;;;;;;;2.40;0.80;;;;;;;12.87;100.00;101380.88;4994881;28;20207;-77
2021/10/01 01:00:00;;;;;;;1.80;0.77;;;;;;;12.92;100.00;101372.72;4994122;28;20216;-78
2021/10/01 01:02:25;;;;;;;3.87;0.87;;;;;;;12.91;100.00;101362.91;5030627;28;20286;-78
2021/10/01 01:04:51;;;;;;;2.37;1.00;;;;;;;12.77;100.00;101359.03;4989095;28;20184;-78
2021/10/01 01:07:25;;;;;;;3.63;0.80;;;;;;;12.79;100.00;101351.44;4979331;28;20221;-76
2021/10/01 01:09:59;;;;;;;1.87;0.90;;;;;;;12.92;100.00;101347.38;4991132;28;20783;-76
2021/10/01 01:12:28;;;;;;;2.37;1.03;;;;;;;12.85;100.00;101355.81;5028726;28;20269;-75
2021/10/01 01:14:58;;;;;;;2.57;0.93;;;;;;;12.87;100.00;101352.81;5022638;28;20199;-76
2021/10/01 01:17:41;;;;;;;1.93;1.10;;;;;;;12.92;100.00;101355.56;5032664;28;20224;-75
2021/10/01 01:20:31;;;;;;;1.07;0.90;;;;;;;12.79;100.00;101354.16;4988478;28;20204;-74
2021/10/01 01:23:31;;;;;;;2.37;0.80;;;;;;;12.78;100.00;101347.06;4997689;28;20212;-75
2021/10/01 01:25:57;;;;;;;1.67;0.90;;;;;;;12.84;100.00;101353.38;5016203;28;20226;-75
2021/10/01 01:29:09;;;;;;;2.60;0.90;;;;;;;12.95;100.00;101349.53;5033440;28;20583;-76
2021/10/01 01:31:44;;;;;;;3.50;0.90;;;;;;;12.84;100.00;101335.09;4998326;28;20298;-74
2021/10/01 01:34:18;;;;;;;3.13;0.80;;;;;;;12.86;100.00;101340.28;5004590;28;20282;-75
2021/10/01 01:36:53;;;;;;;2.27;0.93;;;;;;;12.64;100.00;101330.66;5001824;28;20220;-76
2021/10/01 01:39:23;;;;;;;2.23;0.80;;;;;;;12.57;100.00;101324.66;4997426;28;20267;-75
2021/10/01 01:41:54;;;;;;;1.53;0.80;;;;;;;12.68;100.00;101331.75;4981203;28;20232;-74
2021/10/01 01:44:22;;;;;;;4.07;0.87;;;;;;;12.67;100.00;101324.66;5017036;28;20271;-75
2021/10/01 01:46:48;;;;;;;2.33;0.90;;;;;;;12.51;100.00;101325.69;4984302;28;20224;-76
2021/10/01 01:49:13;;;;;;;1.87;0.87;;;;;;;12.66;100.00;101325.75;4998400;28;20196;-74
2021/10/01 01:51:44;;;;;;;2.97;1.00;;;;;;;12.60;100.00;101335.00;4997358;28;20216;-75
2021/10/01 01:54:11;;;;;;;3.37;0.90;;;;;;;12.53;100.00;101318.91;4981831;28;20185;-75
2021/10/01 01:56:41;;;;;;;2.20;0.90;;;;;;;12.53;100.00;101313.47;4983974;28;20212;-74
2021/10/01 01:59:11;;;;;;;2.73;0.80;;;;;;;12.47;100.00;101303.63;4985699;28;20215;-74
2021/10/01 02:01:43;;;;;;;2.90;0.87;;;;;;;12.55;100.00;101305.81;4981408;28;20225;-72
2021/10/01 02:04:22;;;;;;;1.27;0.70;;;;;;;12.48;100.00;101305.25;4984472;28;20185;-75
2021/10/01 02:06:49;;;;;;;3.30;0.70;;;;;;;12.49;100.00;101300.63;4999944;28;20224;-76
2021/10/01 02:09:16;;;;;;;1.93;0.80;;;;;;;12.57;100.00;101300.13;4983900;28;20208;-76
2021/10/01 02:11:44;;;;;;;3.27;0.80;;;;;;;12.48;100.00;101309.91;4980594;28;20300;-76
2021/10/01 02:14:13;;;;;;;2.83;0.90;;;;;;;12.35;100.00;101294.06;4997291;28;20192;-75
2021/10/01 02:16:41;;;;;;;2.13;0.80;;;;;;;12.54;100.00;101303.38;4998683;28;20227;-76
2021/10/01 02:19:09;;;;;;;2.13;0.90;;;;;;;12.52;100.00;101303.63;5022597;28;20681;-76
2021/10/01 02:21:39;;;;;;;1.37;0.90;;;;;;;12.59;100.00;101295.22;4974994;28;20232;-77
2021/10/01 02:24:05;;;;;;;3.07;0.70;;;;;;;12.58;100.00;101288.13;5004754;28;20290;-76
2021/10/01 02:26:39;;;;;;;3.90;1.00;;;;;;;12.65;100.00;101280.50;5002133;28;20812;-75
2021/10/01 02:29:27;;;;;;;1.33;0.70;;;;;;;12.67;100.00;101286.50;5019668;28;20204;-75
2021/10/01 02:32:07;;;;;;;3.53;0.90;;;;;;;12.66;100.00;101279.44;4980065;28;20237;-75
2021/10/01 02:34:37;;;;;;;1.77;1.00;;;;;;;12.61;100.00;101282.13;4979478;28;20193;-76
2021/10/01 02:37:14;;;;;;;1.43;0.77;;;;;;;12.50;100.00;101275.03;5017532;28;20223;-74
2021/10/01 02:39:42;;;;;;;3.50;1.37;;;;;;;12.50;100.00;101275.03;5001641;28;20618;-77
2021/10/01 02:42:08;;;;;;;2.40;1.10;;;;;;;12.56;100.00;101279.38;4981792;28;20664;-76
2021/10/01 02:44:34;;;;;;;3.73;0.80;;;;;;;12.40;100.00;101267.66;4996776;28;20201;-76
2021/10/01 02:47:05;;;;;;;2.13;0.77;;;;;;;12.42;100.00;101264.66;4997517;28;20220;-76
2021/10/01 02:49:33;;;;;;;2.73;0.90;;;;;;;12.50;100.00;101269.56;5000021;28;20204;-75
2021/10/01 02:52:07;;;;;;;3.90;0.87;;;;;;;12.47;100.00;101257.31;4982921;28;20295;-75
2021/10/01 02:54:38;;;;;;;3.07;1.00;;;;;;;12.45;100.00;101255.94;4980529;28;20193;-75
2021/10/01 02:57:14;;;;;;;1.83;1.00;;;;;;;12.51;100.00;101254.84;4981065;28;20220;-74
2021/10/01 02:59:42;;;;;;;4.27;1.37;;;;;;;12.40;100.00;101250.50;5000221;28;20712;-75
2021/10/01 03:02:10;;;;;;;1.93;0.70;;;;;;;12.44;100.00;101255.13;4982945;28;20217;-76
2021/10/01 03:04:36;;;;;;;6.23;1.63;;;;;;;12.26;100.00;101245.81;4979706;28;20181;-75
2021/10/01 03:07:04;;;;;;;3.57;0.80;;;;;;;12.38;100.00;101249.91;4994195;28;20220;-75
2021/10/01 03:09:31;;;;;;;2.37;0.90;;;;;;;12.38;100.00;101245.31;4982643;28;20211;-75
2021/10/01 03:11:57;;;;;;;2.30;1.00;;;;;;;12.33;100.00;101236.31;5010475;28;20208;-76
2021/10/01 03:14:26;;;;;;;2.90;0.87;;;;;;;12.33;100.00;101237.13;4986659;28;20227;-77
2021/10/01 03:16:57;;;;;;;1.20;0.80;;;;;;;12.23;100.00;101241.72;4977755;28;20212;-77
2021/10/01 03:19:22;;;;;;;2.37;1.20;;;;;;;12.31;100.00;101243.94;4972420;28;20212;-76
2021/10/01 03:21:53;;;;;;;4.07;0.90;;;;;;;12.25;100.00;101239.53;4992167;28;20583;-76
2021/10/01 03:24:22;;;;;;;2.30;0.90;;;;;;;12.22;100.00;101233.84;4999019;28;20586;-77
2021/10/01 03:26:53;;;;;;;6.23;1.00;;;;;;;12.16;100.00;101235.72;4988666;28;20721;-77
2021/10/01 03:29:19;;;;;;;4.40;1.00;;;;;;;12.25;100.00;101234.09;4994997;28;20646;-77
2021/10/01 03:31:51;;;;;;;2.23;0.93;;;;;;;12.18;100.00;101239.00;5023448;28;20232;-75
2021/10/01 03:34:17;;;;;;;3.30;1.13;;;;;;;12.27;100.00;101242.00;4983469;28;20184;-74
2021/10/01 03:36:49;;;;;;;3.17;1.03;;;;;;;12.06;100.00;101232.16;4974908;28;20220;-75
2021/10/01 03:39:20;;;;;;;2.33;0.90;;;;;;;12.07;100.00;101234.59;4979189;28;20205;-76
2021/10/01 03:41:52;;;;;;;3.67;0.97;;;;;;;12.13;100.00;101225.34;5002953;28;20273;-75
2021/10/01 03:44:22;;;;;;;4.43;1.00;;;;;;;12.14;100.00;101232.44;5014885;28;20267;-76
2021/10/01 03:46:51;;;;;;;1.83;1.03;;;;;;;12.05;100.00;101228.63;4989631;28;20805;-78
2021/10/01 03:49:19;;;;;;;2.93;0.80;;;;;;;12.08;100.00;101221.81;4995480;28;20201;-76
2021/10/01 03:51:44;;;;;;;4.47;3.40;;;;;;;12.18;100.00;101225.38;4975971;28;20213;-75
2021/10/01 03:54:12;;;;;;;2.23;1.20;;;;;;;11.98;100.00;101221.78;5011089;28;20196;-76
2021/10/01 03:56:38;;;;;;;2.03;1.00;;;;;;;12.06;100.00;101208.44;4998620;28;20224;-75
2021/10/01 03:59:03;;;;;;;3.23;1.10;;;;;;;12.22;100.00;101218.31;5030699;28;20212;-76
2021/10/01 04:01:31;;;;;;;2.97;1.13;;;;;;;12.07;100.00;101207.38;4989908;28;20239;-75
2021/10/01 04:04:05;;;;;;;3.60;0.90;;;;;;;12.27;100.00;101212.88;4990592;28;20559;-75
2021/10/01 04:06:33;;;;;;;2.83;1.20;;;;;;;12.25;100.00;101212.28;5012130;28;20264;-75
2021/10/01 04:09:04;;;;;;;2.47;0.90;;;;;;;12.17;100.00;101203.84;5030464;28;20200;-75
2021/10/01 04:11:31;;;;;;;4.23;1.00;;;;;;;12.15;100.00;101211.47;5012671;28;20602;-76
2021/10/01 04:13:58;;;;;;;3.03;1.07;;;;;;;12.09;100.00;101212.56;4978311;28;20212;-76
2021/10/01 04:16:27;;;;;;;3.07;0.97;;;;;;;12.07;100.00;101199.22;4994591;28;20224;-75
2021/10/01 04:18:55;;;;;;;2.17;0.90;;;;;;;12.16;100.00;101208.50;5030503;28;20204;-76
2021/10/01 04:21:20;;;;;;;2.10;0.80;;;;;;;11.88;100.00;101208.13;5013661;28;20232;-75
2021/10/01 04:23:50;;;;;;;1.57;1.00;;;;;;;12.01;100.00;101205.72;4979547;28;20196;-75
2021/10/01 04:26:36;;;;;;;2.33;0.90;;;;;;;11.96;100.00;101208.44;4983482;28;20296;-76
2021/10/01 04:29:06;;;;;;;3.13;0.90;;;;;;;11.94;100.00;101196.16;5014241;28;20682;-76
2021/10/01 04:31:32;;;;;;;3.83;0.87;;;;;;;11.98;100.00;101197.28;5013384;28;20303;-76
2021/10/01 04:33:58;;;;;;;2.50;1.07;;;;;;;11.98;100.00;101195.38;4979195;28;20183;-75
2021/10/01 04:36:26;;;;;;;3.50;1.10;;;;;;;11.90;100.00;101189.59;4958977;28;20368;-76
2021/10/01 04:38:56;;;;;;;3.93;1.00;;;;;;;11.93;100.00;101189.09;4981810;28;20203;-76
2021/10/01 04:41:23;;;;;;;2.57;0.90;;;;;;;11.91;100.00;101199.44;4977977;28;20237;-75
2021/10/01 04:43:48;;;;;;;2.23;0.90;;;;;;;11.88;100.00;101199.13;4994387;28;20212;-75
2021/10/01 04:46:14;;;;;;;2.00;0.90;;;;;;;11.81;100.00;101201.28;4993635;28;20701;-75
2021/10/01 04:48:42;;;;;;;4.27;1.27;;;;;;;11.87;100.00;101198.34;4976968;28;20180;-76
2021/10/01 04:51:11;;;;;;;3.13;1.13;;;;;;;11.91;100.00;101197.50;5028724;28;20242;-77
2021/10/01 04:53:40;;;;;;;2.77;1.10;;;;;;;11.74;100.00;101192.53;4968391;28;20181;-76
2021/10/01 04:56:08;;;;;;;2.90;1.00;;;;;;;11.71;100.00;101188.47;4977612;28;20694;-76
2021/10/01 04:58:34;;;;;;;2.27;0.90;;;;;;;11.91;100.00;101187.72;4989634;28;20182;-75
2021/10/01 05:01:22;;;;;;;2.03;1.00;;;;;;;11.75;100.00;101189.56;5030915;28;20764;-75
2021/10/01 05:04:06;;;;;;;1.87;1.07;;;;;;;11.79;100.00;101190.66;4988331;28;20199;-76
2021/10/01 05:06:37;;;;;;;1.93;0.90;;;;;;;11.76;100.00;101198.56;5011095;28;20232;-75
2021/10/01 05:09:21;;;;;;;3.03;0.97;;;;;;;11.73;100.00;101190.91;5014318;28;20261;-75
2021/10/01 05:12:26;;;;;;;2.87;0.97;;;;;;;11.89;100.00;101189.91;4973689;28;20633;-73
2021/10/01 05:15:10;;;;;;;2.07;0.90;;;;;;;11.87;100.00;101192.03;4942551;28;20205;-75
2021/10/01 05:17:56;;;;;;;3.57;1.00;;;;;;;11.77;100.00;101197.47;4996688;28;20266;-75
2021/10/01 05:20:44;;;;;;;2.03;0.87;;;;;;;11.91;100.00;101198.63;4999485;28;20228;-74
2021/10/01 05:23:18;;;;;;;2.40;1.00;;;;;;;11.82;100.00;101200.22;4988610;28;20205;-75
2021/10/01 05:25:44;;;;;;;2.63;0.90;;;;;;;11.73;100.00;101201.81;4974908;28;20241;-74
2021/10/01 05:28:13;;;;;;;1.90;0.90;;;;;;;11.73;100.00;101204.53;4982346;28;20209;-75
2021/10/01 05:30:41;;;;;;;2.87;1.10;;;;;;;11.73;100.00;101196.38;5029183;28;20234;-75
2021/10/01 05:33:13;;;;;;;1.70;0.80;;;;;;;11.90;100.00;101186.06;4990211;28;20201;-73
2021/10/01 05:35:39;;;;;;;2.10;0.80;;;;;;;11.81;100.00;101188.50;5005104;28;20221;-75
2021/10/01 05:38:10;;;;;;;1.83;1.00;;;;;;;11.89;100.00;101189.91;4995019;28;20272;-73
2021/10/01 05:40:39;;;;;;;3.13;1.10;;;;;;;11.91;100.00;101198.63;4997398;28;20605;-76
2021/10/01 05:43:08;;;;;;;2.90;0.90;;;;;;;11.92;100.00;101196.44;5027310;28;20581;-74
2021/10/01 05:45:40;;;;;;;2.37;0.70;;;;;;;11.80;100.00;101191.50;4993442;28;20303;-75
2021/10/01 05:48:26;;;;;;;4.13;1.20;;;;;;;11.92;100.00;101198.31;5013999;28;20242;-75
2021/10/01 05:51:14;;;;;;;2.07;1.00;;;;;;;11.88;100.00;101197.22;4995534;28;20212;-75
2021/10/01 05:56:54;;;;;;;3.30;1.10;;;;;;;12.07;100.00;101192.94;5010251;28;20227;-75
2021/10/01 05:59:46;;;;;;;4.33;1.20;;;;;;;11.98;100.00;101189.91;4986769;28;20260;-75
2021/10/01 06:02:20;;;;;;;1.93;0.80;;;;;;;12.00;100.00;101182.31;4975311;28;20225;-75
2021/10/01 06:04:52;;;;;;;4.40;0.97;;;;;;;12.12;100.00;101190.22;5010621;28;20192;-74
2021/10/01 06:07:22;;;;;;;2.53;0.80;;;;;;;12.06;100.00;101183.94;5032649;28;20861;-73
2021/10/01 06:09:52;;;;;;;0.93;0.87;;;;;;;12.06;100.00;101178.50;5004184;28;20223;-75
2021/10/01 06:12:18;;;;;;;2.17;0.90;;;;;;;12.04;100.00;101183.38;4981384;28;20228;-75
2021/10/01 06:14:46;;;;;;;4.77;1.10;;;;;;;12.07;100.00;101188.31;5025659;28;20199;-75
2021/10/01 06:17:15;;;;;;;2.10;0.90;;;;;;;12.08;100.00;101189.94;4999705;28;20772;-75
2021/10/01 06:19:42;;;;;;;2.43;1.00;;;;;;;12.09;100.00;101186.13;5006923;28;20268;-75
2021/10/01 06:22:08;;;;;;;3.37;1.03;;;;;;;12.14;100.00;101179.88;4996798;28;20319;-76
2021/10/01 06:24:36;;;;;;;4.30;1.00;;;;;;;12.14;100.00;101180.72;5005416;28;20532;-76
2021/10/01 06:27:03;;;;;;;1.97;0.77;;;;;;;12.20;100.00;101182.34;5000081;28;20236;-76
2021/10/01 06:29:30;;;;;;;2.60;0.93;;;;;;;12.23;100.00;101176.34;4976852;28;20197;-77
2021/10/01 06:32:01;;;;;;;4.07;0.80;;;;;;;12.04;100.00;101188.03;4996766;28;20209;-75
2021/10/01 06:34:26;;;;;;;3.83;1.30;;;;;;;12.11;100.00;101183.97;5002975;28;20185;-76
2021/10/01 06:36:52;;;;;;;1.93;1.27;;;;;;;11.99;100.00;101194.25;5033434;28;20223;-73
2021/10/01 06:39:18;;;;;;;3.07;0.80;;;;;;;12.11;100.00;101189.41;5011964;28;20232;-75
2021/10/01 06:41:46;;;;;;;2.87;0.90;;;;;;;12.18;100.00;101189.97;4979864;28;20248;-75
2021/10/01 06:44:22;;;;;;;2.10;0.80;;;;;;;12.38;100.00;101189.97;5000307;28;20259;-76
2021/10/01 06:47:18;;;;;;;2.70;0.90;;;;;;;12.34;100.00;101191.63;5001795;28;20708;-75
2021/10/01 07:36:19;;;;;;;3.33;0.90;;;;;;;13.30;100.00;101189.41;5017439;28;20597;-76
2021/10/01 08:20:32;;;;;;;2.67;1.50;;;;;;;13.92;100.00;101151.19;5016082;28;20235;-74
2021/10/01 08:22:57;;;;;;;1.80;1.00;;;;;;;14.10;100.00;101155.22;5010770;28;20205;-75
2021/10/01 08:25:25;;;;;;;2.23;1.10;;;;;;;14.07;99.05;101153.06;5011571;28;20590;-75
2021/10/01 08:27:53;;;;;;;2.47;0.80;;;;;;;14.11;96.62;101152.19;5013771;28;20192;-75
2021/10/01 08:30:19;;;;;;;3.03;0.90;;;;;;;14.16;96.36;101160.38;5013489;28;20204;-77
2021/10/01 08:32:50;;;;;;;3.53;0.90;;;;;;;14.43;96.81;101147.88;4978939;28;20706;-77
2021/10/01 08:35:22;;;;;;;3.20;0.97;;;;;;;14.66;96.84;101152.59;4995146;28;20189;-77
2021/10/01 08:37:50;;;;;;;2.30;0.93;;;;;;;14.85;93.95;101159.81;4998959;28;20215;-77
2021/10/01 08:40:16;;;;;;;1.90;0.80;;;;;;;14.90;94.45;101145.28;4981319;28;20706;-77
2021/10/01 08:42:44;;;;;;;2.90;0.80;;;;;;;15.15;90.87;101141.19;4978664;28;20274;-77
2021/10/01 08:45:11;;;;;;;1.60;0.90;;;;;;;15.16;90.04;101142.84;4994130;28;20181;-78
2021/10/01 08:47:42;;;;;;;1.93;0.90;;;;;;;15.20;90.54;101130.22;4981837;28;20180;-75
2021/10/01 08:50:09;;;;;;;1.95;0.60;;;;;;;15.19;89.98;101147.72;4997680;28;20681;-77
2021/10/01 08:52:35;;;;;;;1.67;0.70;;;;;;;15.18;87.99;101137.91;4978238;28;20189;-75
2021/10/01 08:55:05;;;;;;;2.17;0.87;;;;;;;15.31;89.40;101136.38;4978224;28;20287;-76
2021/10/01 08:57:31;;;;;;;4.03;0.90;;;;;;;15.41;86.11;101134.31;4980777;28;20646;-75
2021/10/01 09:00:00;;;;;;;1.17;0.80;;;;;;;15.35;88.06;101134.66;4997101;28;20212;-77
2021/10/01 09:02:26;;;;;;;3.38;1.10;;;;;;;15.45;91.43;101129.91;5019798;28;20319;-76
2021/10/01 09:04:55;;;;;;;1.92;0.73;;;;;;;15.58;87.54;101123.72;5010416;28;20204;-75
2021/10/01 09:07:26;;;;;;;3.28;0.70;;;;;;;15.53;89.30;101127.34;5013085;28;20313;-76
2021/10/01 09:09:52;;;;;;;2.28;0.77;;;;;;;15.79;86.57;101115.75;4997379;28;20200;-74
2021/10/01 09:12:18;;;;;;;2.15;0.70;;;;;;;15.85;86.31;101114.56;4977171;28;20213;-74
2021/10/01 09:14:57;;;;;;;2.65;0.93;;;;;;;15.83;85.76;101121.44;4993356;28;20272;-74
2021/10/01 09:17:28;;;;;;;2.40;0.80;;;;;;;15.81;86.10;101126.41;4984127;28;20236;-76
2021/10/01 09:19:56;;;;;;;2.13;0.80;;;;;;;15.65;86.88;101113.22;4942268;28;20216;-75
2021/10/01 09:22:29;;;;;;;1.52;0.88;;;;;;;15.46;86.49;101120.59;4957256;28;20255;-76
2021/10/01 09:25:07;;;;;;;2.63;0.80;;;;;;;15.48;89.03;101123.84;4996908;28;20653;-76
2021/10/01 09:27:35;;;;;;;2.63;1.08;;;;;;;15.48;86.74;101099.19;5009607;28;20220;-73
2021/10/01 09:30:06;;;;;;;1.10;0.60;;;;;;;15.73;87.96;101104.31;4962300;28;20237;-75
2021/10/01 09:32:34;;;;;;;2.10;0.73;;;;;;;15.78;85.22;101099.59;4996983;28;20612;-73
2021/10/01 09:35:08;;;;;;;2.58;0.90;;;;;;;15.75;85.62;101100.22;5013324;28;20185;-77
2021/10/01 09:37:35;;;;;;;1.75;0.70;;;;;;;16.12;85.04;101081.81;5008935;28;20208;-76
2021/10/01 09:40:02;;;;;;;1.40;0.70;;;;;;;16.14;84.88;101084.28;5014105;28;20653;-76
2021/10/01 09:42:33;;;;;;;1.90;0.80;;;;;;;16.23;84.36;101081.41;5019072;28;20299;-73
2021/10/01 09:45:04;;;;;;;2.75;0.88;;;;;;;16.17;83.06;101073.50;5001326;28;20204;-74
2021/10/01 09:47:37;;;;;;;1.42;0.70;;;;;;;16.42;85.05;101071.19;5012643;28;20205;-77
2021/10/01 09:50:04;;;;;;;2.22;0.85;;;;;;;16.58;82.10;101070.63;4982504;28;20254;-76
2021/10/01 09:52:47;;;;;;;3.33;0.80;;;;;;;16.80;82.37;101070.78;5017978;28;20208;-76
2021/10/01 09:55:15;;;;;;;4.53;2.00;;;;;;;16.76;80.40;101072.50;5016235;28;20227;-75
2021/10/01 09:58:02;;;;;;;4.25;2.05;;;;;;;16.91;80.67;101074.16;4978819;28;20206;-75
2021/10/01 10:00:52;;;;;;;3.05;1.30;;;;;;;16.76;80.57;101069.75;4997258;28;20769;-76
2021/10/01 10:03:23;;;;;;;3.00;1.33;;;;;;;16.99;80.50;101071.50;5007786;28;20670;-78
2021/10/01 10:06:01;;;;;;;4.25;1.50;;;;;;;17.02;77.64;101060.72;5033828;28;20252;-75
2021/10/01 10:08:41;;;;;;;3.58;1.35;;;;;;;17.44;80.82;101064.00;5023031;28;20268;-75
2021/10/01 10:11:09;;;;;;;2.38;1.13;;;;;;;17.61;78.00;101064.19;5013265;28;20216;-76
2021/10/01 10:13:38;;;;;;;3.38;1.00;;;;;;;17.67;74.93;101068.44;4991761;28;20796;-74
2021/10/01 10:16:11;;;;;;;3.30;0.88;;;;;;;17.34;78.91;101064.22;5033583;28;20228;-74
2021/10/01 10:18:39;;;;;;;1.73;1.00;;;;;;;17.25;78.09;101068.00;5006812;28;20185;-73
2021/10/01 10:21:07;;;;;;;3.70;1.05;;;;;;;17.20;78.23;101061.81;5013298;28;20436;-77
2021/10/01 10:23:33;;;;;;;3.22;0.80;;;;;;;17.18;77.83;101069.50;5006251;28;20191;-77
2021/10/01 10:26:01;;;;;;;1.10;0.80;;;;;;;16.93;76.75;101052.72;4999594;28;20220;-75
2021/10/01 10:28:26;;;;;;;1.75;0.80;;;;;;;17.07;79.62;101051.59;5025375;28;20268;-74
2021/10/01 10:30:52;;;;;;;2.83;1.08;;;;;;;16.98;79.27;101058.91;4980412;28;20236;-75
2021/10/01 10:33:37;;;;;;;3.55;1.05;;;;;;;17.15;78.63;101048.13;5002482;28;20208;-75
2021/10/01 10:36:28;;;;;;;2.53;0.70;;;;;;;17.24;79.42;101046.34;5015936;28;20223;-76
2021/10/01 10:39:21;;;;;;;2.22;1.00;;;;;;;17.50;79.79;101040.78;5023663;28;20201;-77
2021/10/01 10:41:53;;;;;;;4.85;0.82;;;;;;;17.66;76.62;101033.84;5012713;28;20233;-75
2021/10/01 10:44:21;;;;;;;2.22;0.68;;;;;;;17.71;75.87;101030.16;5013985;28;20203;-73
2021/10/01 10:46:47;;;;;;;2.50;0.70;;;;;;;18.03;73.14;101028.03;4968834;28;20225;-73
2021/10/01 10:49:27;;;;;;;2.70;0.88;;;;;;;18.12;76.54;101024.25;5012612;28;20204;-76
2021/10/01 10:52:12;;;;;;;2.38;0.90;;;;;;;18.27;72.47;101016.41;5012796;28;20216;-74
2021/10/01 10:54:39;;;;;;;2.65;0.77;;;;;;;18.30;74.20;101018.53;5015915;28;20211;-76
2021/10/01 10:57:17;;;;;;;2.42;0.85;;;;;;;18.44;72.35;101011.00;4995695;28;20224;-76
2021/10/01 10:59:50;;;;;;;2.42;0.80;;;;;;;18.44;73.41;101010.22;5012248;28;20208;-73
2021/10/01 11:02:25;;;;;;;1.77;0.77;;;;;;;18.30;71.23;101012.25;4979940;28;20220;-74
2021/10/01 11:04:51;;;;;;;2.40;0.95;;;;;;;18.46;70.39;101010.69;5010118;28;20271;-75
2021/10/01 11:07:50;;;;;;;2.95;1.08;;;;;;;18.99;66.53;101011.16;4973980;28;20769;-75
2021/10/01 11:10:44;;;;;;;2.60;0.75;;;;;;;19.14;70.50;101015.41;5012551;28;20197;-75
2021/10/01 11:13:18;;;;;;;3.22;0.70;;;;;;;18.87;65.45;101014.81;5010914;28;20734;-75
2021/10/01 11:16:11;;;;;;;2.35;0.77;;;;;;;18.99;62.45;101011.16;5006685;28;20220;-74
2021/10/01 11:18:45;;;;;;;1.55;0.77;;;;;;;19.22;63.61;101004.41;4998132;28;20216;-75
2021/10/01 11:21:35;;;;;;;1.38;0.60;;;;;;;19.38;62.07;100994.59;5022859;28;20256;-76
2021/10/01 11:24:09;;;;;;;3.30;0.77;;;;;;;18.98;60.97;100992.19;5016816;28;20650;-75
2021/10/01 11:26:47;;;;;;;1.92;0.63;;;;;;;18.80;63.35;100989.69;5011545;28;20312;-76
2021/10/01 11:29:24;;;;;;;2.95;1.00;;;;;;;18.61;67.17;100991.88;5009484;28;20204;-75
2021/10/01 11:32:16;;;;;;;2.88;0.77;;;;;;;18.49;68.64;100988.88;5019291;28;20287;-77
2021/10/01 11:34:45;;;;;;;1.50;0.70;;;;;;;18.36;67.71;100984.28;4993781;28;20181;-73
2021/10/01 11:37:40;;;;;;;2.80;0.82;;;;;;;18.12;70.71;100994.78;5012460;28;20213;-74
2021/10/01 11:40:08;;;;;;;1.98;0.70;;;;;;;17.89;70.77;100994.25;4978591;28;20224;-73
2021/10/01 11:42:41;;;;;;;2.03;0.60;;;;;;;17.95;72.56;100987.53;5017699;28;20229;-72
2021/10/01 11:45:11;;;;;;;3.17;0.75;;;;;;;18.01;70.06;100991.78;4987739;28;20249;-72
2021/10/01 11:47:38;;;;;;;3.55;0.70;;;;;;;17.72;73.37;100983.13;4999530;28;20196;-73
2021/10/01 11:50:06;;;;;;;3.22;1.00;;;;;;;17.68;73.16;100992.31;4995576;28;20572;-75
2021/10/01 11:52:41;;;;;;;3.00;0.68;;;;;;;17.84;68.44;100989.72;4994725;28;20315;-73
2021/10/01 11:55:10;;;;;;;2.17;0.90;;;;;;;17.85;71.96;100976.78;4995093;28;20189;-73
2021/10/01 11:57:41;;;;;;;4.40;1.15;;;;;;;18.05;75.61;100971.59;5009305;28;20174;-74
2021/10/01 12:00:11;;;;;;;1.52;0.90;;;;;;;18.30;68.89;100970.97;4977012;28;20220;-73
2021/10/01 12:02:41;;;;;;;4.28;1.38;;;;;;;18.46;67.56;100966.69;4995969;28;20867;-73
2021/10/01 12:05:30;;;;;;;3.38;1.30;;;;;;;18.76;73.63;100966.66;5008571;28;20193;-72
2021/10/01 12:08:05;;;;;;;3.13;1.08;;;;;;;18.53;67.00;100963.19;5010791;28;20196;-74
2021/10/01 12:10:36;;;;;;;3.17;1.05;;;;;;;18.29;61.99;100953.63;4993387;28;20220;-74
2021/10/01 12:13:11;;;;;;;2.40;0.90;;;;;;;18.27;63.86;100952.34;4974498;28;20213;-73
2021/10/01 12:15:48;;;;;;;1.48;0.73;;;;;;;18.36;67.48;100953.22;4980599;28;20216;-74
2021/10/01 12:18:35;;;;;;;2.03;0.90;;;;;;;18.52;64.44;100945.03;4984339;28;20189;-73
2021/10/01 12:21:07;;;;;;;3.45;0.90;;;;;;;18.49;63.41;100939.34;5015070;28;20221;-73
2021/10/01 12:23:45;;;;;;;2.53;1.10;;;;;;;18.50;67.71;100940.97;5011043;28;20196;-75
2021/10/01 12:26:27;;;;;;;3.95;1.00;;;;;;;18.48;64.54;100948.75;4988413;28;20247;-75
2021/10/01 12:29:01;;;;;;;2.25;0.90;;;;;;;18.48;64.80;100943.25;5011480;28;20208;-75
2021/10/01 12:31:31;;;;;;;1.67;0.70;;;;;;;18.57;64.28;100938.56;5010671;28;20300;-75
2021/10/01 12:34:00;;;;;;;2.55;0.80;;;;;;;18.54;69.23;100928.19;4998440;28;20188;-75
2021/10/01 12:36:28;;;;;;;1.58;0.70;;;;;;;18.68;65.18;100917.88;4981672;28;20710;-75
2021/10/01 12:38:55;;;;;;;0.80;0.50;;;;;;;18.88;67.98;100913.44;5011074;28;20264;-75
2021/10/01 12:41:25;;;;;;;2.42;0.80;;;;;;;19.08;61.82;100918.38;4975528;28;20277;-75
2021/10/01 12:43:57;;;;;;;2.75;0.95;;;;;;;19.37;64.18;100904.75;4997311;28;20670;-76
2021/10/01 12:46:47;;;;;;;2.03;0.80;;;;;;;19.97;59.37;100900.84;4990121;28;20310;-76
2021/10/01 12:49:17;;;;;;;3.38;0.80;;;;;;;20.26;59.41;100893.47;4993523;28;20221;-75
2021/10/01 12:52:11;;;;;;;1.63;0.70;;;;;;;20.41;58.93;100895.69;5004244;28;20232;-77
2021/10/01 12:54:55;;;;;;;3.28;0.90;;;;;;;20.46;57.27;100882.50;5008179;28;20196;-76
2021/10/01 12:57:22;;;;;;;1.92;1.10;;;;;;;20.42;55.81;100877.97;4961596;28;20299;-75
2021/10/01 13:00:03;;;;;;;1.83;1.00;;;;;;;20.00;55.03;100878.13;4994680;28;20598;-78
2021/10/01 13:02:34;;;;;;;1.10;0.60;;;;;;;19.79;55.76;100877.97;4994897;28;20220;-76
2021/10/01 13:05:05;;;;;;;4.35;0.93;;;;;;;19.78;57.40;100883.84;5013483;28;20243;-77
2021/10/01 13:07:34;;;;;;;1.58;0.80;;;;;;;19.66;57.22;100882.88;4978503;28;20308;-77
2021/10/01 13:10:03;;;;;;;3.95;1.55;;;;;;;19.65;58.16;100884.81;4979101;28;20205;-75
2021/10/01 13:12:44;;;;;;;2.28;0.90;;;;;;;19.72;54.59;100877.69;5007762;28;20319;-74